createdAt,value
2017-04-12T00:00:20.984Z,12.77
2017-04-12T00:01:31.005Z,12.84
2017-04-12T00:02:41.332Z,12.83
2017-04-12T00:03:51.673Z,12.76
2017-04-12T00:05:02.014Z,12.62
2017-04-12T00:06:12.409Z,12.76
2017-04-12T00:07:22.741Z,12.73
2017-04-12T00:08:33.057Z,12.62
2017-04-12T00:09:43.393Z,12.65
2017-04-12T00:10:53.733Z,12.65
2017-04-12T00:12:04.081Z,12.59
2017-04-12T00:13:14.418Z,12.53
2017-04-12T00:14:24.448Z,12.59
2017-04-12T00:15:34.461Z,12.51
2017-04-12T00:16:44.797Z,12.47
2017-04-12T00:17:55.189Z,12.47
2017-04-12T00:19:05.226Z,12.45
2017-04-12T00:20:15.243Z,12.44
2017-04-12T00:21:25.263Z,12.37
2017-04-12T00:22:35.608Z,12.36
2017-04-12T00:23:45.628Z,12.31
2017-04-12T00:24:55.958Z,12.28
2017-04-12T00:26:06.296Z,12.38
2017-04-12T00:27:16.625Z,12.23
2017-04-12T00:28:26.960Z,12.22
2017-04-12T00:29:37.308Z,12.15
2017-04-12T00:30:47.629Z,12.16
2017-04-12T00:31:57.976Z,12.15
2017-04-12T00:33:08.315Z,12.13
2017-04-12T00:34:18.695Z,12.19
2017-04-12T00:35:28.722Z,12.1
2017-04-12T00:36:39.047Z,12.04
2017-04-12T00:37:49.384Z,12.04
2017-04-12T00:38:59.092Z,12.01
2017-04-12T00:40:09.109Z,11.89
2017-04-12T00:41:19.465Z,11.86
2017-04-12T00:42:29.793Z,11.95
2017-04-12T00:43:40.132Z,11.82
2017-04-12T00:44:50.469Z,11.84
2017-04-12T00:46:01.057Z,11.81
2017-04-12T00:47:11.082Z,11.76
2017-04-12T00:48:21.419Z,11.7
2017-04-12T00:49:31.460Z,11.7
2017-04-12T00:50:41.787Z,11.64
2017-04-12T00:51:51.826Z,11.66
2017-04-12T00:53:02.174Z,11.59
2017-04-12T00:54:12.514Z,11.64
2017-04-12T00:55:22.869Z,11.6
2017-04-12T00:56:33.212Z,11.53
2017-04-12T00:57:43.539Z,11.48
2017-04-12T00:58:53.885Z,11.49
2017-04-12T01:00:04.233Z,11.38
2017-04-12T01:01:14.568Z,11.39
2017-04-12T01:02:24.906Z,11.39
2017-04-12T01:03:35.253Z,11.39
2017-04-12T01:04:44.964Z,11.45
2017-04-12T01:05:55.302Z,11.42
2017-04-12T01:07:05.641Z,11.27
2017-04-12T01:08:15.979Z,11.34
2017-04-12T01:09:26.004Z,11.3
2017-04-12T01:10:35.768Z,11.21
2017-04-12T01:11:46.104Z,11.18
2017-04-12T01:12:56.445Z,11.21
2017-04-12T01:14:06.179Z,11.16
2017-04-12T01:15:16.504Z,11.12
2017-04-12T01:16:26.516Z,11.13
2017-04-12T01:17:36.837Z,11.23
2017-04-12T01:18:46.882Z,11.13
2017-04-12T01:19:57.213Z,11.15
2017-04-12T01:21:07.240Z,11.15
2017-04-12T01:22:17.564Z,11.18
2017-04-12T01:23:27.270Z,11.21
2017-04-12T01:24:37.637Z,11.21
2017-04-12T01:25:47.958Z,11.18
2017-04-12T01:26:57.975Z,11.27
2017-04-12T01:28:08.321Z,11.21
2017-04-12T01:29:18.660Z,11.18
2017-04-12T01:30:28.996Z,11.21
2017-04-12T01:31:39.019Z,11.23
2017-04-12T01:32:49.073Z,11.18
2017-04-12T01:33:59.401Z,11.1
2017-04-12T01:35:09.732Z,11.12
2017-04-12T01:36:20.059Z,11.2
2017-04-12T01:37:29.766Z,11.1
2017-04-12T01:38:40.101Z,11.1
2017-04-12T01:39:50.439Z,11.15
2017-04-12T01:41:00.451Z,11.12
2017-04-12T01:42:10.782Z,11.09
2017-04-12T01:43:21.103Z,11.15
2017-04-12T01:44:31.421Z,11.09
2017-04-12T01:45:41.751Z,11.13
2017-04-12T01:46:51.770Z,11.09
2017-04-12T01:48:01.462Z,11.12
2017-04-12T01:49:11.484Z,11.13
2017-04-12T01:50:21.818Z,11.08
2017-04-12T01:51:31.827Z,11.06
2017-04-12T01:52:42.163Z,10.98
2017-04-12T01:53:51.879Z,10.92
2017-04-12T01:55:01.896Z,10.95
2017-04-12T01:56:12.223Z,10.9
2017-04-12T01:57:22.555Z,10.91
2017-04-12T01:58:32.882Z,10.84
2017-04-12T01:59:43.217Z,10.83
2017-04-12T02:00:53.580Z,10.8
2017-04-12T02:02:03.962Z,10.8
2017-04-12T02:03:14.298Z,10.87
2017-04-12T02:04:24.307Z,10.84
2017-04-12T02:05:34.641Z,10.7
2017-04-12T02:06:44.656Z,10.77
2017-04-12T02:07:54.999Z,10.79
2017-04-12T02:09:05.331Z,10.67
2017-04-12T02:10:15.659Z,10.7
2017-04-12T02:11:25.682Z,10.67
2017-04-12T02:12:35.702Z,10.59
2017-04-12T02:13:46.045Z,10.54
2017-04-12T02:14:56.382Z,10.51
2017-04-12T02:16:06.096Z,10.41
2017-04-12T02:17:15.800Z,10.38
2017-04-12T02:18:26.147Z,10.33
2017-04-12T02:19:36.152Z,10.38
2017-04-12T02:20:46.180Z,10.42
2017-04-12T02:21:56.501Z,10.47
2017-04-12T02:23:06.842Z,10.36
2017-04-12T02:24:17.164Z,10.44
2017-04-12T02:25:27.177Z,10.42
2017-04-12T02:26:37.502Z,10.35
2017-04-12T02:27:47.833Z,10.46
2017-04-12T02:28:58.211Z,10.47
2017-04-12T02:30:08.219Z,10.41
2017-04-12T02:31:17.926Z,10.39
2017-04-12T02:32:28.258Z,10.41
2017-04-12T02:33:38.590Z,10.33
2017-04-12T02:34:48.614Z,10.32
2017-04-12T02:35:58.638Z,10.35
2017-04-12T02:37:08.665Z,10.31
2017-04-12T02:38:18.990Z,10.35
2017-04-12T02:39:29.012Z,10.28
2017-04-12T02:40:39.343Z,10.21
2017-04-12T02:41:49.359Z,10.31
2017-04-12T02:42:59.375Z,10.26
2017-04-12T02:44:09.772Z,10.29
2017-04-12T02:45:20.094Z,10.23
2017-04-12T02:46:30.421Z,10.25
2017-04-12T02:47:40.763Z,10.18
2017-04-12T02:48:51.100Z,10.21
2017-04-12T02:50:01.117Z,10.25
2017-04-12T02:51:11.131Z,10.28
2017-04-12T02:52:21.476Z,10.31
2017-04-12T02:53:31.502Z,10.35
2017-04-12T02:54:41.888Z,10.39
2017-04-12T02:55:51.597Z,10.36
2017-04-12T02:57:01.617Z,10.36
2017-04-12T02:58:11.930Z,10.36
2017-04-12T02:59:21.955Z,10.36
2017-04-12T03:00:31.960Z,10.38
2017-04-12T03:01:42.285Z,10.33
2017-04-12T03:32:42.857Z,7.18
2017-04-12T03:33:53.191Z,7.16
2017-04-12T03:35:03.543Z,7.13
2017-04-12T03:36:13.864Z,7.11
2017-04-12T03:37:24.192Z,7.19
2017-04-12T03:38:34.258Z,7.29
2017-04-12T03:39:44.579Z,7.4
2017-04-12T03:40:54.915Z,7.55
2017-04-12T03:42:05.244Z,7.7
2017-04-12T03:43:15.247Z,7.78
2017-04-12T03:44:25.611Z,8.06
2017-04-12T03:45:35.632Z,8.11
2017-04-12T03:46:45.960Z,8.21
2017-04-12T03:47:55.670Z,8.4
2017-04-12T03:49:05.994Z,8.61
2017-04-12T03:50:15.705Z,8.72
2017-04-12T03:51:26.028Z,8.82
2017-04-12T03:52:36.355Z,8.87
2017-04-12T03:53:46.696Z,9.04
2017-04-12T03:54:57.036Z,9.16
2017-04-12T03:56:07.109Z,9.23
2017-04-12T03:57:16.812Z,9.34
2017-04-12T03:58:27.145Z,9.35
2017-04-12T03:59:37.469Z,9.42
2017-04-12T04:00:47.500Z,9.45
2017-04-12T04:01:57.807Z,9.57
2017-04-12T04:03:07.829Z,9.55
2017-04-12T04:04:18.170Z,9.6
2017-04-12T04:05:28.201Z,9.64
2017-04-12T04:06:38.515Z,9.6
2017-04-12T04:07:48.843Z,9.63
2017-04-12T04:08:59.188Z,9.71
2017-04-12T04:10:08.887Z,9.74
2017-04-12T04:11:18.901Z,9.8
2017-04-12T04:12:28.917Z,9.74
2017-04-12T04:13:39.314Z,9.84
2017-04-12T04:14:49.355Z,9.84
2017-04-12T04:15:59.700Z,9.84
2017-04-12T04:17:10.027Z,9.95
2017-04-12T04:18:20.043Z,9.99
2017-04-12T04:19:30.379Z,9.93
2017-04-12T04:20:40.396Z,10.08
2017-04-12T04:21:50.736Z,10.05
2017-04-12T04:23:01.073Z,10.02
2017-04-12T04:24:11.086Z,10.14
2017-04-12T04:25:21.122Z,10.13
2017-04-12T04:26:31.448Z,10.14
2017-04-12T04:27:41.777Z,10.2
2017-04-12T04:28:52.113Z,10.23
2017-04-12T04:30:02.442Z,10.25
2017-04-12T04:31:12.775Z,10.28
2017-04-12T04:32:23.145Z,10.32
2017-04-12T04:33:33.163Z,10.29
2017-04-12T04:34:43.177Z,10.36
2017-04-12T04:35:53.501Z,10.38
2017-04-12T04:37:03.840Z,10.41
2017-04-12T04:38:14.182Z,10.36
2017-04-12T04:39:24.503Z,10.38
2017-04-12T04:40:34.845Z,10.35
2017-04-12T04:41:45.177Z,10.47
2017-04-12T04:42:55.274Z,10.46
2017-04-12T04:44:05.599Z,10.55
2017-04-12T04:45:15.932Z,10.66
2017-04-12T04:46:25.959Z,10.66
2017-04-12T04:47:36.286Z,10.77
2017-04-12T04:48:46.326Z,10.84
2017-04-12T04:49:56.372Z,10.92
2017-04-12T04:51:06.394Z,11
2017-04-12T04:52:16.728Z,10.97
2017-04-12T04:53:26.744Z,11.02
2017-04-12T04:54:37.074Z,11.12
2017-04-12T04:55:47.402Z,11.06
2017-04-12T04:56:57.730Z,11.15
2017-04-12T04:58:08.051Z,11.24
2017-04-12T04:59:18.386Z,11.2
2017-04-12T05:00:28.728Z,11.35
2017-04-12T05:01:39.065Z,11.35
2017-04-12T05:02:49.078Z,11.41
2017-04-12T05:03:59.408Z,11.34
2017-04-12T05:05:09.730Z,11.43
2017-04-12T05:06:19.751Z,11.57
2017-04-12T05:07:30.133Z,11.53
2017-04-12T05:08:40.152Z,11.57
2017-04-12T05:09:50.173Z,11.68
2017-04-12T05:11:00.494Z,11.61
2017-04-12T05:12:10.847Z,11.71
2017-04-12T05:13:21.227Z,11.79
2017-04-12T05:14:31.534Z,11.75
2017-04-12T05:15:41.867Z,11.82
2017-04-12T05:16:51.898Z,11.94
2017-04-12T05:18:01.614Z,12.11
2017-04-12T05:19:11.938Z,12.15
2017-04-12T05:20:22.289Z,12.25
2017-04-12T05:21:32.611Z,12.29
2017-04-12T05:22:42.628Z,12.45
2017-04-12T05:23:53.013Z,12.48
2017-04-12T05:25:03.041Z,12.53
2017-04-12T05:26:13.063Z,12.63
2017-04-12T05:27:23.385Z,12.74
2017-04-12T05:28:33.718Z,12.84
2017-04-12T05:29:44.051Z,12.92
2017-04-12T05:30:54.379Z,12.98
2017-04-12T05:32:04.431Z,13.11
2017-04-12T05:33:14.747Z,13.19
2017-04-12T05:34:25.125Z,13.31
2017-04-12T05:35:35.216Z,13.42
2017-04-12T05:36:45.546Z,13.53
2017-04-12T05:37:55.869Z,13.58
2017-04-12T05:39:05.900Z,13.63
2017-04-12T05:40:16.230Z,13.63
2017-04-12T05:41:26.308Z,13.75
2017-04-12T05:42:36.651Z,13.84
2017-04-12T05:43:46.682Z,14.03
2017-04-12T05:44:56.744Z,14.03
2017-04-12T05:46:07.070Z,14.15
2017-04-12T05:47:17.389Z,14.21
2017-04-12T05:48:27.726Z,14.28
2017-04-12T05:49:38.066Z,14.33
2017-04-12T05:50:48.401Z,14.41
2017-04-12T05:51:58.434Z,14.46
2017-04-12T05:53:08.757Z,14.59
2017-04-12T05:54:18.784Z,14.71
2017-04-12T05:55:29.135Z,14.89
2017-04-12T05:56:39.471Z,15.07
2017-04-12T05:57:49.494Z,15.2
2017-04-12T05:58:59.835Z,15.26
2017-04-12T06:00:10.176Z,15.38
2017-04-12T06:01:20.189Z,15.41
2017-04-12T06:02:30.216Z,15.44
2017-04-12T06:03:40.551Z,15.49
2017-04-12T06:04:50.593Z,15.49
2017-04-12T06:06:00.635Z,15.44
2017-04-12T06:07:10.342Z,15.44
2017-04-12T06:08:20.702Z,15.47
2017-04-12T06:09:31.031Z,15.62
2017-04-12T06:10:41.061Z,15.59
2017-04-12T06:11:51.108Z,15.63
2017-04-12T06:13:01.455Z,15.63
2017-04-12T06:14:11.483Z,15.65
2017-04-12T06:15:21.853Z,15.65
2017-04-12T06:16:31.872Z,15.62
2017-04-12T06:17:41.886Z,15.62
2017-04-12T06:18:52.236Z,15.74
2017-04-12T06:20:01.975Z,15.77
2017-04-12T06:21:11.993Z,15.71
2017-04-12T06:22:22.317Z,15.74
2017-04-12T06:23:32.666Z,15.77
2017-04-12T06:24:43.010Z,15.8
2017-04-12T06:25:53.354Z,15.88
2017-04-12T06:27:03.421Z,15.8
2017-04-12T06:28:13.767Z,15.81
2017-04-12T06:29:24.097Z,15.88
2017-04-12T06:30:34.446Z,15.88
2017-04-12T06:31:44.753Z,16
2017-04-12T06:32:55.039Z,15.99
2017-04-12T06:34:05.319Z,16.11
2017-04-12T06:35:15.278Z,16.25
2017-04-12T06:36:25.554Z,16.42
2017-04-12T06:37:35.830Z,16.45
2017-04-12T06:38:45.819Z,16.57
2017-04-12T06:39:56.081Z,16.59
2017-04-12T06:41:06.336Z,16.73
2017-04-12T06:42:16.302Z,16.8
2017-04-12T06:43:26.271Z,16.9
2017-04-12T06:44:36.559Z,16.97
2017-04-12T06:45:46.558Z,17.06
2017-04-12T06:46:56.755Z,17.17
2017-04-12T06:48:07.025Z,17.22
2017-04-12T06:49:17.309Z,17.36
2017-04-12T06:50:27.276Z,17.42
2017-04-12T06:51:37.568Z,17.49
2017-04-12T06:52:47.833Z,17.58
2017-04-12T06:53:58.101Z,17.73
2017-04-12T06:55:08.364Z,17.79
2017-04-12T06:56:18.633Z,17.96
2017-04-12T06:57:28.916Z,18.05
2017-04-12T06:58:39.183Z,18.1
2017-04-12T06:59:49.478Z,18.13
2017-04-12T07:00:59.752Z,18.19
2017-04-12T07:02:09.722Z,18.17
2017-04-12T07:03:20.005Z,18.32
2017-04-12T07:04:30.291Z,18.45
2017-04-12T07:05:40.582Z,18.42
2017-04-12T07:06:50.879Z,18.56
2017-04-12T07:08:01.150Z,18.54
2017-04-12T07:09:11.125Z,18.69
2017-04-12T07:10:21.389Z,18.75
2017-04-12T07:11:31.371Z,18.81
2017-04-12T07:12:41.037Z,18.82
2017-04-12T07:13:51.320Z,18.94
2017-04-12T07:15:01.606Z,18.94
2017-04-12T07:16:11.899Z,19.07
2017-04-12T07:17:22.214Z,19.16
2017-04-12T07:18:32.486Z,19.28
2017-04-12T07:19:42.465Z,19.34
2017-04-12T07:20:52.726Z,19.45
2017-04-12T07:22:02.748Z,19.56
2017-04-12T07:23:13.028Z,19.55
2017-04-12T07:24:22.711Z,19.57
2017-04-12T07:25:32.671Z,19.6
2017-04-12T07:26:42.938Z,19.65
2017-04-12T07:27:52.901Z,19.8
2017-04-12T07:29:03.167Z,19.83
2017-04-12T07:30:13.371Z,19.83
2017-04-12T07:31:23.329Z,19.89
2017-04-12T07:32:33.632Z,19.97
2017-04-12T07:33:43.600Z,20.02
2017-04-12T07:34:53.572Z,19.98
2017-04-12T07:36:03.860Z,20.1
2017-04-12T07:37:13.873Z,20.04
2017-04-12T07:38:24.152Z,20.05
2017-04-12T07:39:34.434Z,20.2
2017-04-12T07:40:44.710Z,20.22
2017-04-12T07:41:54.362Z,20.25
2017-04-12T07:43:04.639Z,20.32
2017-04-12T07:44:14.920Z,20.48
2017-04-12T07:45:25.246Z,20.4
2017-04-12T07:46:35.518Z,20.53
2017-04-12T07:47:45.804Z,20.53
2017-04-12T07:48:56.101Z,20.58
2017-04-12T07:50:06.365Z,20.71
2017-04-12T07:51:16.634Z,20.75
2017-04-12T07:52:26.902Z,20.76
2017-04-12T07:53:37.174Z,20.72
2017-04-12T07:54:47.445Z,20.83
2017-04-12T07:55:57.409Z,20.82
2017-04-12T07:57:07.927Z,20.83
2017-04-12T07:58:17.883Z,20.94
2017-04-12T07:59:27.847Z,20.91
2017-04-12T08:00:37.817Z,21.03
2017-04-12T08:01:48.105Z,21.06
2017-04-12T08:02:58.079Z,21.25
2017-04-12T08:04:07.762Z,21.34
2017-04-12T08:05:18.025Z,21.34
2017-04-12T08:06:28.304Z,21.4
2017-04-12T08:07:38.263Z,21.28
2017-04-12T08:08:48.547Z,21.36
2017-04-12T08:09:58.819Z,21.41
2017-04-12T08:11:09.099Z,21.55
2017-04-12T08:12:19.069Z,21.56
2017-04-12T08:13:29.374Z,21.71
2017-04-12T08:14:39.653Z,21.86
2017-04-12T08:15:49.620Z,21.86
2017-04-12T08:16:59.275Z,21.97
2017-04-12T08:18:09.545Z,21.96
2017-04-12T08:19:19.815Z,22.02
2017-04-12T08:20:29.781Z,22.09
2017-04-12T08:21:40.062Z,22.12
2017-04-12T08:22:50.537Z,22.16
2017-04-12T08:24:00.493Z,22.12
2017-04-12T08:25:10.792Z,22.2
2017-04-12T08:26:21.081Z,22.22
2017-04-12T08:27:31.367Z,22.2
2017-04-12T08:28:41.358Z,22.22
2017-04-12T08:29:51.626Z,22.26
2017-04-12T08:31:01.591Z,22.26
2017-04-12T08:32:11.888Z,22.29
2017-04-12T08:33:21.909Z,22.23
2017-04-12T08:34:31.887Z,22.26
2017-04-12T08:35:41.864Z,22.14
2017-04-12T08:36:52.173Z,22.3
2017-04-12T08:38:02.448Z,22.41
2017-04-12T08:39:12.735Z,22.42
2017-04-12T08:40:22.712Z,22.51
2017-04-12T08:41:32.988Z,22.59
2017-04-12T08:42:42.957Z,22.66
2017-04-12T08:43:52.928Z,22.69
2017-04-12T08:45:03.213Z,22.79
2017-04-12T08:46:13.177Z,22.81
2017-04-12T08:47:23.447Z,22.82
2017-04-12T08:48:33.716Z,22.85
2017-04-12T08:49:43.370Z,22.86
2017-04-12T08:50:53.649Z,22.91
2017-04-12T08:52:03.609Z,22.92
2017-04-12T08:53:13.311Z,22.92
2017-04-12T08:54:22.667Z,23.03
2017-04-12T08:55:32.938Z,23.16
2017-04-12T08:56:43.201Z,23.22
2017-04-12T08:57:53.472Z,23.15
2017-04-12T08:59:03.738Z,23.07
2017-04-12T09:00:13.697Z,23.26
2017-04-12T09:01:23.977Z,23.26
2017-04-12T09:02:34.248Z,23.35
2017-04-12T09:03:44.223Z,23.48
2017-04-12T09:04:54.500Z,23.56
2017-04-12T09:06:04.464Z,23.52
2017-04-12T09:07:14.755Z,23.57
2017-04-12T09:08:24.746Z,23.6
2017-04-12T09:09:34.715Z,23.63
2017-04-12T09:10:44.397Z,23.57
2017-04-12T09:11:54.060Z,23.62
2017-04-12T09:13:04.369Z,23.53
2017-04-12T09:14:14.336Z,23.48
2017-04-12T09:15:24.648Z,23.57
2017-04-12T09:16:34.623Z,23.5
2017-04-12T09:17:44.908Z,23.48
2017-04-12T09:18:55.232Z,23.45
2017-04-12T09:20:05.519Z,23.42
2017-04-12T09:21:15.481Z,23.37
2017-04-12T09:22:25.461Z,23.4
2017-04-12T09:23:35.795Z,23.37
2017-04-12T09:24:46.069Z,23.42
2017-04-12T09:25:56.024Z,23.4
2017-04-12T09:27:06.316Z,23.45
2017-04-12T09:28:16.287Z,23.45
2017-04-12T09:29:26.548Z,23.53
2017-04-12T09:30:36.510Z,23.48
2017-04-12T09:31:46.164Z,23.53
2017-04-12T09:32:56.444Z,23.63
2017-04-12T09:34:06.645Z,23.7
2017-04-12T09:35:16.605Z,23.63
2017-04-12T09:36:26.298Z,23.74
2017-04-12T09:37:36.261Z,23.7
2017-04-12T09:38:46.542Z,23.71
2017-04-12T09:39:56.506Z,23.66
2017-04-12T09:41:06.480Z,23.72
2017-04-12T09:42:16.456Z,23.84
2017-04-12T09:43:26.419Z,23.87
2017-04-12T09:44:36.697Z,23.82
2017-04-12T09:45:46.672Z,23.96
2017-04-12T09:46:56.950Z,24.07
2017-04-12T09:48:06.631Z,24.04
2017-04-12T09:49:17.146Z,24.09
2017-04-12T09:50:27.411Z,23.99
2017-04-12T09:51:37.678Z,23.99
2017-04-12T09:52:47.952Z,23.93
2017-04-12T09:53:58.230Z,24
2017-04-12T09:55:08.552Z,23.94
2017-04-12T09:56:18.206Z,23.97
2017-04-12T09:57:28.489Z,23.96
2017-04-12T09:58:38.461Z,24.02
2017-04-12T09:59:48.740Z,24.03
2017-04-12T10:00:59.038Z,24.07
2017-04-12T10:02:08.998Z,23.99
2017-04-12T10:03:18.984Z,23.99
2017-04-12T10:04:29.264Z,23.84
2017-04-12T10:05:39.543Z,23.82
2017-04-12T10:06:49.834Z,23.94
2017-04-12T10:08:00.113Z,23.99
2017-04-12T10:09:09.781Z,23.94
2017-04-12T10:10:20.051Z,23.93
2017-04-12T10:11:30.336Z,23.9
2017-04-12T10:12:40.613Z,23.9
2017-04-12T10:13:50.889Z,24
2017-04-12T10:15:01.166Z,24.02
2017-04-12T10:16:11.453Z,24.09
2017-04-12T10:17:21.738Z,24.07
2017-04-12T10:18:31.387Z,24.09
2017-04-12T10:19:41.053Z,24.04
2017-04-12T10:20:51.030Z,24.08
2017-04-12T10:22:01.347Z,24
2017-04-12T10:23:11.007Z,23.99
2017-04-12T10:24:21.280Z,24.09
2017-04-12T10:25:31.547Z,24.09
2017-04-12T10:26:41.564Z,24.12
2017-04-12T10:27:51.529Z,23.93
2017-04-12T10:29:01.809Z,23.92
2017-04-12T10:30:12.100Z,23.89
2017-04-12T10:31:22.373Z,23.67
2017-04-12T10:32:32.647Z,23.63
2017-04-12T10:33:42.918Z,23.62
2017-04-12T10:34:53.199Z,23.53
2017-04-12T10:36:03.491Z,23.44
2017-04-12T10:37:13.455Z,23.4
2017-04-12T10:38:23.735Z,23.55
2017-04-12T10:39:33.692Z,23.64
2017-04-12T10:40:43.673Z,23.78
2017-04-12T10:41:53.660Z,23.93
2017-04-12T10:43:03.627Z,24.14
2017-04-12T10:44:13.931Z,24.42
2017-04-12T10:45:24.206Z,24.56
2017-04-12T10:46:34.477Z,24.71
2017-04-12T10:47:44.756Z,24.55
2017-04-12T10:48:55.032Z,24.54
2017-04-12T10:50:05.006Z,24.52
2017-04-12T10:51:15.303Z,24.55
2017-04-12T10:52:25.572Z,24.58
2017-04-12T10:53:35.552Z,24.48
2017-04-12T10:54:45.523Z,24.39
2017-04-12T10:55:55.808Z,24.33
2017-04-12T10:57:06.128Z,24.45
2017-04-12T10:58:16.399Z,24.7
2017-04-12T10:59:26.733Z,24.67
2017-04-12T11:00:37.013Z,24.56
2017-04-12T11:01:46.667Z,24.61
2017-04-12T11:02:56.942Z,24.7
2017-04-12T11:04:07.202Z,25.01
2017-04-12T11:05:16.871Z,25.27
2017-04-12T11:06:26.556Z,25.54
2017-04-12T11:07:36.884Z,25.74
2017-04-12T11:08:47.174Z,25.96
2017-04-12T11:09:57.457Z,26.27
2017-04-12T11:11:07.733Z,26.38
2017-04-12T11:12:18.053Z,26.3
2017-04-12T11:13:28.323Z,26.39
2017-04-12T11:14:38.628Z,26.76
2017-04-12T11:15:48.916Z,26.93
2017-04-12T11:16:58.883Z,27.06
2017-04-12T11:18:09.184Z,26.91
2017-04-12T11:19:19.147Z,27.05
2017-04-12T11:20:29.431Z,27.13
2017-04-12T11:21:39.705Z,27.26
2017-04-12T11:22:49.976Z,27.33
2017-04-12T11:23:59.968Z,27.36
2017-04-12T11:25:10.257Z,27.52
2017-04-12T11:26:20.226Z,27.59
2017-04-12T11:27:30.508Z,27.57
2017-04-12T11:28:40.785Z,27.57
2017-04-12T11:29:51.053Z,27.59
2017-04-12T11:31:01.334Z,27.49
2017-04-12T11:32:11.601Z,27.37
2017-04-12T11:33:21.582Z,27.23
2017-04-12T11:34:31.552Z,27.06
2017-04-12T11:35:41.865Z,26.9
2017-04-12T11:36:52.145Z,26.79
2017-04-12T11:38:02.425Z,26.72
2017-04-12T11:39:12.701Z,26.57
2017-04-12T11:40:22.977Z,26.38
2017-04-12T11:41:32.941Z,26.42
2017-04-12T11:42:43.217Z,26.44
2017-04-12T11:43:53.502Z,26.39
2017-04-12T11:45:03.164Z,26.41
2017-04-12T11:46:13.446Z,26.6
2017-04-12T11:47:23.136Z,26.57
2017-04-12T11:48:33.415Z,26.57
2017-04-12T11:49:43.701Z,26.54
2017-04-12T11:50:53.984Z,26.37
2017-04-12T11:52:03.648Z,26.17
2017-04-12T11:53:13.629Z,25.99
2017-04-12T11:54:23.906Z,25.86
2017-04-12T11:55:34.259Z,25.71
2017-04-12T11:56:44.540Z,25.6
2017-04-12T11:57:54.750Z,25.59
2017-04-12T11:59:05.040Z,25.44
2017-04-12T12:00:15.341Z,25.37
2017-04-12T12:01:24.991Z,25.22
2017-04-12T12:02:34.959Z,25.14
2017-04-12T12:03:45.223Z,25.11
2017-04-12T12:04:55.189Z,25.19
2017-04-12T12:06:05.461Z,25.04
2017-04-12T12:07:15.733Z,24.89
2017-04-12T12:08:26.014Z,24.7
2017-04-12T12:09:36.296Z,24.34
2017-04-12T12:10:46.566Z,23.99
2017-04-12T12:11:56.843Z,23.84
2017-04-12T12:13:07.121Z,23.67
2017-04-12T12:14:17.387Z,23.59
2017-04-12T12:15:27.660Z,23.62
2017-04-12T12:16:37.937Z,23.64
2017-04-12T12:17:48.217Z,23.53
2017-04-12T12:18:58.529Z,23.48
2017-04-12T12:20:08.820Z,23.47
2017-04-12T12:21:18.799Z,23.35
2017-04-12T12:22:29.083Z,23.35
2017-04-12T12:23:39.055Z,23.37
2017-04-12T12:24:49.023Z,23.5
2017-04-12T12:25:59.292Z,23.48
2017-04-12T12:27:09.307Z,23.55
2017-04-12T12:28:19.293Z,23.57
2017-04-12T12:29:29.610Z,23.6
2017-04-12T12:30:39.636Z,23.9
2017-04-12T12:31:49.902Z,24.03
2017-04-12T12:32:59.585Z,24.26
2017-04-12T12:34:09.262Z,24.45
2017-04-12T12:35:19.544Z,24.56
2017-04-12T12:36:29.508Z,24.55
2017-04-12T12:37:39.782Z,24.67
2017-04-12T12:38:50.057Z,24.58
2017-04-12T12:40:00.359Z,24.74
2017-04-12T12:41:10.671Z,24.82
2017-04-12T12:42:20.958Z,24.85
2017-04-12T12:43:30.949Z,24.9
2017-04-12T12:44:41.252Z,25.01
2017-04-12T12:45:51.531Z,25.07
2017-04-12T12:47:01.837Z,25
2017-04-12T12:48:11.843Z,25.22
2017-04-12T12:49:22.126Z,25.2
2017-04-12T12:50:32.108Z,25.27
2017-04-12T12:51:42.111Z,25.3
2017-04-12T12:52:52.417Z,25.42
2017-04-12T12:54:02.687Z,25.52
2017-04-12T12:55:12.697Z,25.63
2017-04-12T12:56:22.968Z,25.71
2017-04-12T12:57:33.245Z,25.67
2017-04-12T12:58:43.216Z,25.74
2017-04-12T12:59:53.532Z,25.69
2017-04-12T13:01:03.808Z,25.7
2017-04-12T13:02:14.095Z,25.82
2017-04-12T13:03:24.374Z,25.71
2017-04-12T13:04:34.656Z,25.79
2017-04-12T13:05:44.929Z,25.79
2017-04-12T13:06:55.215Z,25.88
2017-04-12T13:08:05.201Z,25.81
2017-04-12T13:09:15.481Z,25.75
2017-04-12T13:10:25.747Z,25.74
2017-04-12T13:11:36.033Z,25.64
2017-04-12T13:12:46.309Z,25.67
2017-04-12T13:13:56.618Z,25.67
2017-04-12T13:15:06.603Z,25.51
2017-04-12T13:16:16.868Z,25.41
2017-04-12T13:17:27.175Z,25.24
2017-04-12T13:18:37.450Z,25.12
2017-04-12T13:19:47.436Z,24.89
2017-04-12T13:20:57.404Z,24.78
2017-04-12T13:22:07.676Z,24.8
2017-04-12T13:23:17.707Z,24.67
2017-04-12T13:24:27.677Z,24.45
2017-04-12T13:25:37.963Z,24.46
2017-04-12T13:26:48.253Z,24.33
2017-04-12T13:27:57.614Z,24.3
2017-04-12T13:29:07.585Z,24.21
2017-04-12T13:30:17.861Z,24.15
2017-04-12T13:31:28.137Z,24.07
2017-04-12T13:32:38.436Z,23.92
2017-04-12T13:33:48.439Z,23.97
2017-04-12T13:34:58.455Z,23.89
2017-04-12T13:36:08.731Z,23.79
2017-04-12T13:37:19.008Z,23.87
2017-04-12T13:38:28.977Z,23.81
2017-04-12T13:39:39.264Z,23.78
2017-04-12T13:40:49.292Z,23.84
2017-04-12T13:41:59.561Z,23.78
2017-04-12T13:43:09.532Z,23.66
2017-04-12T13:44:19.500Z,23.77
2017-04-12T13:45:29.171Z,23.6
2017-04-12T13:46:38.831Z,23.53
2017-04-12T13:47:48.809Z,23.5
2017-04-12T13:48:58.490Z,23.38
2017-04-12T13:50:08.774Z,23.28
2017-04-12T13:51:19.049Z,23.28
2017-04-12T13:52:29.021Z,23.4
2017-04-12T13:53:39.296Z,23.48
2017-04-12T13:54:49.281Z,23.56
2017-04-12T13:55:59.756Z,23.64
2017-04-12T13:57:10.030Z,23.77
2017-04-12T13:58:20.306Z,24.03
2017-04-12T13:59:30.313Z,24.33
2017-04-12T14:00:40.580Z,24.49
2017-04-12T14:01:50.855Z,24.32
2017-04-12T14:03:00.813Z,24.32
2017-04-12T14:04:10.796Z,24.17
2017-04-12T14:05:21.082Z,24.17
2017-04-12T14:06:31.362Z,24.18
2017-04-12T14:07:41.633Z,24.03
2017-04-12T14:08:51.901Z,24.02
2017-04-12T14:10:02.230Z,24
2017-04-12T14:11:12.213Z,24.03
2017-04-12T14:12:22.209Z,23.85
2017-04-12T14:13:32.506Z,23.71
2017-04-12T14:14:42.783Z,23.6
2017-04-12T14:15:52.747Z,23.56
2017-04-12T14:17:03.053Z,23.53
2017-04-12T14:18:13.341Z,23.52
2017-04-12T14:19:23.625Z,23.56
2017-04-12T14:20:33.592Z,23.53
2017-04-12T14:21:43.950Z,23.62
2017-04-12T14:22:54.231Z,23.7
2017-04-12T14:24:04.506Z,23.63
2017-04-12T14:25:14.784Z,23.5
2017-04-12T14:26:25.067Z,23.48
2017-04-12T14:27:35.382Z,23.48
2017-04-12T14:28:45.349Z,23.4
2017-04-12T14:29:55.620Z,23.47
2017-04-12T14:31:05.658Z,23.35
2017-04-12T14:32:15.937Z,23.4
2017-04-12T14:33:26.208Z,23.24
2017-04-12T14:34:36.504Z,23.14
2017-04-12T14:35:46.771Z,23.03
2017-04-12T14:36:56.746Z,22.94
2017-04-12T14:38:07.032Z,22.97
2017-04-12T14:39:16.997Z,22.82
2017-04-12T14:40:26.658Z,22.88
2017-04-12T14:41:36.954Z,22.85
2017-04-12T14:42:46.608Z,22.89
2017-04-12T14:43:56.886Z,22.86
2017-04-12T14:45:07.151Z,22.91
2017-04-12T14:46:17.470Z,22.91
2017-04-12T14:47:27.742Z,23.03
2017-04-12T14:48:38.013Z,23.09
2017-04-12T14:49:47.985Z,23.01
2017-04-12T14:50:58.258Z,22.96
2017-04-12T14:52:08.214Z,22.78
2017-04-12T14:53:18.191Z,22.73
2017-04-12T14:54:28.478Z,22.66
2017-04-12T14:55:38.465Z,22.66
2017-04-12T14:56:48.731Z,22.55
2017-04-12T14:57:59.012Z,22.49
2017-04-12T14:59:09.299Z,22.48
2017-04-12T15:00:19.607Z,22.49
2017-04-12T15:01:29.568Z,22.49
2017-04-12T15:02:39.225Z,22.49
2017-04-12T15:03:49.546Z,22.36
2017-04-12T15:04:59.815Z,22.38
2017-04-12T15:06:10.079Z,22.27
2017-04-12T15:07:20.362Z,22.26
2017-04-12T15:08:30.633Z,22.18
2017-04-12T15:09:40.906Z,22.08
2017-04-12T15:10:51.182Z,22.2
2017-04-12T15:12:01.449Z,22.2
2017-04-12T15:13:11.716Z,22.12
2017-04-12T15:14:21.992Z,22.09
2017-04-12T15:15:31.967Z,21.94
2017-04-12T15:16:42.242Z,21.96
2017-04-12T15:17:52.547Z,21.94
2017-04-12T15:19:02.858Z,21.99
2017-04-12T15:20:13.138Z,22
2017-04-12T15:21:22.838Z,22.02
2017-04-12T15:22:32.820Z,21.93
2017-04-12T15:23:43.099Z,21.96
2017-04-12T15:24:53.127Z,21.96
2017-04-12T15:26:03.419Z,22
2017-04-12T15:27:13.716Z,22.11
2017-04-12T15:28:24.004Z,22.22
2017-04-12T15:29:34.275Z,22.31
2017-04-12T15:30:44.576Z,22.24
2017-04-12T15:31:54.843Z,22.33
2017-04-12T15:33:04.501Z,22.23
2017-04-12T15:34:14.496Z,22.24
2017-04-12T15:35:24.778Z,22.24
2017-04-12T15:36:35.059Z,22.23
2017-04-12T15:37:45.007Z,22.29
2017-04-12T15:38:54.995Z,22.2